sensor_id;sensor_type;location;lat;lon;timestamp;temperature;humidity
33476;DHT22;19814;48.224;11.422;2024-02-23T00:00:23;7.80;99.90
33476;DHT22;19814;48.224;11.422;2024-02-23T00:02:49;7.80;99.90
33476;DHT22;19814;48.224;11.422;2024-02-23T00:05:15;7.90;99.90
33476;DHT22;19814;48.224;11.422;2024-02-23T00:07:40;7.80;99.90
33476;DHT22;19814;48.224;11.422;2024-02-23T00:10:06;7.80;99.90
33476;DHT22;19814;48.224;11.422;2024-02-23T00:12:31;7.70;99.90
33476;DHT22;19814;48.224;11.422;2024-02-23T00:14:57;7.70;99.90
33476;DHT22;19814;48.224;11.422;2024-02-23T00:17:22;7.70;99.90
33476;DHT22;19814;48.224;11.422;2024-02-23T00:19:48;7.70;99.90
33476;DHT22;19814;48.224;11.422;2024-02-23T00:22:14;7.70;99.90
33476;DHT22;19814;48.224;11.422;2024-02-23T00:24:41;7.70;99.90
33476;DHT22;19814;48.224;11.422;2024-02-23T00:27:07;7.70;99.90
33476;DHT22;19814;48.224;11.422;2024-02-23T00:29:32;7.70;99.90
33476;DHT22;19814;48.224;11.422;2024-02-23T00:31:58;7.70;99.90
33476;DHT22;19814;48.224;11.422;2024-02-23T00:34:23;7.70;99.90
33476;DHT22;19814;48.224;11.422;2024-02-23T00:36:49;7.70;99.90
33476;DHT22;19814;48.224;11.422;2024-02-23T00:39:15;7.70;99.90
33476;DHT22;19814;48.224;11.422;2024-02-23T00:41:40;7.80;99.90
33476;DHT22;19814;48.224;11.422;2024-02-23T00:44:06;7.80;99.90
33476;DHT22;19814;48.224;11.422;2024-02-23T00:46:31;7.80;99.90
33476;DHT22;19814;48.224;11.422;2024-02-23T00:48:57;7.80;99.90
33476;DHT22;19814;48.224;11.422;2024-02-23T00:51:22;7.80;99.90
33476;DHT22;19814;48.224;11.422;2024-02-23T00:53:48;7.80;99.90
33476;DHT22;19814;48.224;11.422;2024-02-23T00:56:13;7.80;99.90
33476;DHT22;19814;48.224;11.422;2024-02-23T00:58:39;7.80;99.90
33476;DHT22;19814;48.224;11.422;2024-02-23T01:01:04;7.80;99.90
33476;DHT22;19814;48.224;11.422;2024-02-23T01:03:30;7.80;99.90
33476;DHT22;19814;48.224;11.422;2024-02-23T01:05:55;7.80;99.90
33476;DHT22;19814;48.224;11.422;2024-02-23T01:08:21;7.80;99.90
33476;DHT22;19814;48.224;11.422;2024-02-23T01:10:46;7.80;99.90
33476;DHT22;19814;48.224;11.422;2024-02-23T01:13:12;7.90;99.90
33476;DHT22;19814;48.224;11.422;2024-02-23T01:15:37;7.90;99.90
33476;DHT22;19814;48.224;11.422;2024-02-23T01:18:03;7.90;99.90
33476;DHT22;19814;48.224;11.422;2024-02-23T01:20:29;7.80;99.90
33476;DHT22;19814;48.224;11.422;2024-02-23T01:22:54;7.80;99.90
33476;DHT22;19814;48.224;11.422;2024-02-23T01:25:20;7.80;99.90
33476;DHT22;19814;48.224;11.422;2024-02-23T01:27:45;7.80;99.90
33476;DHT22;19814;48.224;11.422;2024-02-23T01:30:11;7.80;99.90
33476;DHT22;19814;48.224;11.422;2024-02-23T01:32:36;7.80;99.90
33476;DHT22;19814;48.224;11.422;2024-02-23T01:35:04;7.80;99.90
33476;DHT22;19814;48.224;11.422;2024-02-23T01:37:29;7.80;99.90
33476;DHT22;19814;48.224;11.422;2024-02-23T01:39:55;7.80;99.90
33476;DHT22;19814;48.224;11.422;2024-02-23T01:42:21;7.80;99.90
33476;DHT22;19814;48.224;11.422;2024-02-23T01:44:46;7.80;99.90
33476;DHT22;19814;48.224;11.422;2024-02-23T01:47:11;7.70;99.90
33476;DHT22;19814;48.224;11.422;2024-02-23T01:49:37;7.60;99.90
33476;DHT22;19814;48.224;11.422;2024-02-23T01:52:03;7.60;99.90
33476;DHT22;19814;48.224;11.422;2024-02-23T01:54:29;7.60;99.90
33476;DHT22;19814;48.224;11.422;2024-02-23T01:56:56;7.60;99.90
33476;DHT22;19814;48.224;11.422;2024-02-23T01:59:22;7.60;99.90
33476;DHT22;19814;48.224;11.422;2024-02-23T02:01:48;7.60;99.90
33476;DHT22;19814;48.224;11.422;2024-02-23T02:04:14;7.60;99.90
33476;DHT22;19814;48.224;11.422;2024-02-23T02:06:39;7.60;99.90
33476;DHT22;19814;48.224;11.422;2024-02-23T02:09:04;7.60;99.90
33476;DHT22;19814;48.224;11.422;2024-02-23T02:11:30;7.50;99.90
33476;DHT22;19814;48.224;11.422;2024-02-23T02:13:56;7.50;99.90
33476;DHT22;19814;48.224;11.422;2024-02-23T02:16:21;7.50;99.90
33476;DHT22;19814;48.224;11.422;2024-02-23T02:18:47;7.50;99.90
33476;DHT22;19814;48.224;11.422;2024-02-23T02:21:12;7.50;99.90
33476;DHT22;19814;48.224;11.422;2024-02-23T02:23:38;7.50;99.90
33476;DHT22;19814;48.224;11.422;2024-02-23T02:26:03;7.40;99.90
33476;DHT22;19814;48.224;11.422;2024-02-23T02:28:29;7.40;99.90
33476;DHT22;19814;48.224;11.422;2024-02-23T02:30:55;7.40;99.90
33476;DHT22;19814;48.224;11.422;2024-02-23T02:33:21;7.40;99.90
33476;DHT22;19814;48.224;11.422;2024-02-23T02:35:47;7.40;99.90
33476;DHT22;19814;48.224;11.422;2024-02-23T02:38:13;7.30;99.90
33476;DHT22;19814;48.224;11.422;2024-02-23T02:40:38;7.40;99.90
33476;DHT22;19814;48.224;11.422;2024-02-23T02:43:04;7.40;99.90
33476;DHT22;19814;48.224;11.422;2024-02-23T02:45:29;7.40;99.90
33476;DHT22;19814;48.224;11.422;2024-02-23T02:47:55;7.40;99.90
33476;DHT22;19814;48.224;11.422;2024-02-23T02:50:21;7.40;99.90
33476;DHT22;19814;48.224;11.422;2024-02-23T02:52:47;7.40;99.90
33476;DHT22;19814;48.224;11.422;2024-02-23T02:55:12;7.40;99.90
33476;DHT22;19814;48.224;11.422;2024-02-23T02:57:38;7.40;99.90
33476;DHT22;19814;48.224;11.422;2024-02-23T03:00:04;7.30;99.90
33476;DHT22;19814;48.224;11.422;2024-02-23T03:02:34;7.30;99.90
33476;DHT22;19814;48.224;11.422;2024-02-23T03:05:00;7.30;99.90
33476;DHT22;19814;48.224;11.422;2024-02-23T03:07:25;7.30;99.90
33476;DHT22;19814;48.224;11.422;2024-02-23T03:09:51;7.30;99.90
33476;DHT22;19814;48.224;11.422;2024-02-23T03:12:17;7.30;99.90
33476;DHT22;19814;48.224;11.422;2024-02-23T03:14:43;7.30;99.90
33476;DHT22;19814;48.224;11.422;2024-02-23T03:17:08;7.30;99.90
33476;DHT22;19814;48.224;11.422;2024-02-23T03:19:34;7.30;99.90
33476;DHT22;19814;48.224;11.422;2024-02-23T03:22:00;7.20;99.90
33476;DHT22;19814;48.224;11.422;2024-02-23T03:24:26;7.20;99.90
33476;DHT22;19814;48.224;11.422;2024-02-23T03:26:51;7.20;99.90
33476;DHT22;19814;48.224;11.422;2024-02-23T03:29:17;7.10;99.90
33476;DHT22;19814;48.224;11.422;2024-02-23T03:31:42;7.10;99.90
33476;DHT22;19814;48.224;11.422;2024-02-23T03:34:08;7.00;99.90
33476;DHT22;19814;48.224;11.422;2024-02-23T03:36:34;6.90;99.90
33476;DHT22;19814;48.224;11.422;2024-02-23T03:39:00;6.70;99.90
33476;DHT22;19814;48.224;11.422;2024-02-23T03:41:25;6.60;99.90
33476;DHT22;19814;48.224;11.422;2024-02-23T03:43:51;6.40;99.90
33476;DHT22;19814;48.224;11.422;2024-02-23T03:46:16;6.30;99.90
33476;DHT22;19814;48.224;11.422;2024-02-23T03:48:43;6.20;99.90
33476;DHT22;19814;48.224;11.422;2024-02-23T03:51:08;6.20;99.90
33476;DHT22;19814;48.224;11.422;2024-02-23T03:53:34;6.20;99.90
33476;DHT22;19814;48.224;11.422;2024-02-23T03:56:00;6.20;99.90
33476;DHT22;19814;48.224;11.422;2024-02-23T03:58:25;6.10;99.90
33476;DHT22;19814;48.224;11.422;2024-02-23T04:00:51;6.10;99.90
33476;DHT22;19814;48.224;11.422;2024-02-23T04:03:16;6.10;99.90
33476;DHT22;19814;48.224;11.422;2024-02-23T04:05:42;6.10;99.90
33476;DHT22;19814;48.224;11.422;2024-02-23T04:08:07;6.20;99.90
33476;DHT22;19814;48.224;11.422;2024-02-23T04:10:33;6.20;99.90
33476;DHT22;19814;48.224;11.422;2024-02-23T04:12:58;6.20;99.90
33476;DHT22;19814;48.224;11.422;2024-02-23T04:15:24;6.20;99.90
33476;DHT22;19814;48.224;11.422;2024-02-23T04:17:49;6.10;99.90
33476;DHT22;19814;48.224;11.422;2024-02-23T04:20:14;6.20;99.90
33476;DHT22;19814;48.224;11.422;2024-02-23T04:22:40;6.10;99.90
33476;DHT22;19814;48.224;11.422;2024-02-23T04:25:05;6.10;99.90
33476;DHT22;19814;48.224;11.422;2024-02-23T04:27:31;6.10;99.90
33476;DHT22;19814;48.224;11.422;2024-02-23T04:29:57;6.10;99.90
33476;DHT22;19814;48.224;11.422;2024-02-23T04:32:22;6.00;99.90
33476;DHT22;19814;48.224;11.422;2024-02-23T04:34:48;6.10;99.90
33476;DHT22;19814;48.224;11.422;2024-02-23T04:37:14;6.00;99.90
33476;DHT22;19814;48.224;11.422;2024-02-23T04:39:39;6.00;99.90
33476;DHT22;19814;48.224;11.422;2024-02-23T04:42:07;6.10;99.90
33476;DHT22;19814;48.224;11.422;2024-02-23T04:44:34;6.10;99.90
33476;DHT22;19814;48.224;11.422;2024-02-23T04:46:59;6.10;99.90
33476;DHT22;19814;48.224;11.422;2024-02-23T04:49:25;6.10;99.90
33476;DHT22;19814;48.224;11.422;2024-02-23T04:51:50;6.20;99.90
33476;DHT22;19814;48.224;11.422;2024-02-23T04:54:16;6.20;99.90
33476;DHT22;19814;48.224;11.422;2024-02-23T04:56:41;6.20;99.90
33476;DHT22;19814;48.224;11.422;2024-02-23T04:59:07;6.20;99.90
33476;DHT22;19814;48.224;11.422;2024-02-23T05:01:38;6.20;99.90
33476;DHT22;19814;48.224;11.422;2024-02-23T05:04:04;6.20;99.90
33476;DHT22;19814;48.224;11.422;2024-02-23T05:06:29;6.20;99.90
33476;DHT22;19814;48.224;11.422;2024-02-23T05:08:55;6.20;99.90
33476;DHT22;19814;48.224;11.422;2024-02-23T05:11:20;6.10;99.90
33476;DHT22;19814;48.224;11.422;2024-02-23T05:13:46;6.20;99.90
33476;DHT22;19814;48.224;11.422;2024-02-23T05:16:13;6.20;99.90
33476;DHT22;19814;48.224;11.422;2024-02-23T05:18:39;6.10;99.90
33476;DHT22;19814;48.224;11.422;2024-02-23T05:21:05;6.20;99.90
33476;DHT22;19814;48.224;11.422;2024-02-23T05:23:31;6.20;99.90
33476;DHT22;19814;48.224;11.422;2024-02-23T05:25:56;6.10;99.90
33476;DHT22;19814;48.224;11.422;2024-02-23T05:28:22;6.10;99.90
33476;DHT22;19814;48.224;11.422;2024-02-23T05:30:47;6.10;99.90
33476;DHT22;19814;48.224;11.422;2024-02-23T05:33:13;6.10;99.90
33476;DHT22;19814;48.224;11.422;2024-02-23T05:35:38;6.10;99.90
33476;DHT22;19814;48.224;11.422;2024-02-23T05:38:03;6.20;99.90
33476;DHT22;19814;48.224;11.422;2024-02-23T05:40:31;6.20;99.90
33476;DHT22;19814;48.224;11.422;2024-02-23T05:42:58;6.20;99.90
33476;DHT22;19814;48.224;11.422;2024-02-23T05:45:23;6.10;99.90
33476;DHT22;19814;48.224;11.422;2024-02-23T05:47:49;6.10;99.90
33476;DHT22;19814;48.224;11.422;2024-02-23T05:50:15;6.10;99.90
33476;DHT22;19814;48.224;11.422;2024-02-23T05:52:41;6.20;99.90
33476;DHT22;19814;48.224;11.422;2024-02-23T05:55:07;6.20;99.90
33476;DHT22;19814;48.224;11.422;2024-02-23T05:57:33;6.30;99.90
33476;DHT22;19814;48.224;11.422;2024-02-23T05:59:59;6.20;99.90
33476;DHT22;19814;48.224;11.422;2024-02-23T06:02:24;6.10;99.90
33476;DHT22;19814;48.224;11.422;2024-02-23T06:04:50;6.10;99.90
33476;DHT22;19814;48.224;11.422;2024-02-23T06:07:16;6.00;99.90
33476;DHT22;19814;48.224;11.422;2024-02-23T06:09:42;5.90;99.90
33476;DHT22;19814;48.224;11.422;2024-02-23T06:12:08;5.90;99.90
33476;DHT22;19814;48.224;11.422;2024-02-23T06:14:33;5.90;99.90
33476;DHT22;19814;48.224;11.422;2024-02-23T06:16:59;5.90;99.90
33476;DHT22;19814;48.224;11.422;2024-02-23T06:19:24;6.00;99.90
33476;DHT22;19814;48.224;11.422;2024-02-23T06:21:50;6.00;99.90
33476;DHT22;19814;48.224;11.422;2024-02-23T06:24:16;5.80;99.90
33476;DHT22;19814;48.224;11.422;2024-02-23T06:26:41;5.80;99.90
33476;DHT22;19814;48.224;11.422;2024-02-23T06:29:07;5.70;99.90
33476;DHT22;19814;48.224;11.422;2024-02-23T06:31:36;5.60;99.90
33476;DHT22;19814;48.224;11.422;2024-02-23T06:34:02;5.60;99.90
33476;DHT22;19814;48.224;11.422;2024-02-23T06:39:22;5.70;99.90
33476;DHT22;19814;48.224;11.422;2024-02-23T06:41:48;5.60;99.90
33476;DHT22;19814;48.224;11.422;2024-02-23T06:44:13;5.60;99.90
33476;DHT22;19814;48.224;11.422;2024-02-23T06:46:39;5.60;99.90
33476;DHT22;19814;48.224;11.422;2024-02-23T06:49:04;5.70;99.90
33476;DHT22;19814;48.224;11.422;2024-02-23T06:51:31;5.80;99.90
33476;DHT22;19814;48.224;11.422;2024-02-23T06:53:56;5.90;99.90
33476;DHT22;19814;48.224;11.422;2024-02-23T06:56:22;5.90;99.90
33476;DHT22;19814;48.224;11.422;2024-02-23T06:58:47;5.80;99.90
33476;DHT22;19814;48.224;11.422;2024-02-23T07:01:14;5.80;99.90
33476;DHT22;19814;48.224;11.422;2024-02-23T07:03:39;5.70;99.90
33476;DHT22;19814;48.224;11.422;2024-02-23T07:06:06;5.70;99.90
33476;DHT22;19814;48.224;11.422;2024-02-23T07:08:32;5.80;99.90
33476;DHT22;19814;48.224;11.422;2024-02-23T07:10:57;5.90;99.90
33476;DHT22;19814;48.224;11.422;2024-02-23T07:13:22;5.90;99.90
33476;DHT22;19814;48.224;11.422;2024-02-23T07:15:48;5.90;99.90
33476;DHT22;19814;48.224;11.422;2024-02-23T07:18:13;5.80;99.90
33476;DHT22;19814;48.224;11.422;2024-02-23T07:20:40;5.90;99.90
33476;DHT22;19814;48.224;11.422;2024-02-23T07:23:06;5.90;99.90
33476;DHT22;19814;48.224;11.422;2024-02-23T07:25:32;5.80;99.90
33476;DHT22;19814;48.224;11.422;2024-02-23T07:27:57;5.90;99.90
33476;DHT22;19814;48.224;11.422;2024-02-23T07:30:23;5.90;99.90
33476;DHT22;19814;48.224;11.422;2024-02-23T07:32:49;5.80;99.90
33476;DHT22;19814;48.224;11.422;2024-02-23T07:35:14;5.70;99.90
33476;DHT22;19814;48.224;11.422;2024-02-23T07:37:40;5.70;99.90
33476;DHT22;19814;48.224;11.422;2024-02-23T07:40:05;5.70;99.90
33476;DHT22;19814;48.224;11.422;2024-02-23T07:42:31;5.70;99.90
33476;DHT22;19814;48.224;11.422;2024-02-23T07:44:57;5.60;99.90
33476;DHT22;19814;48.224;11.422;2024-02-23T07:47:23;5.60;99.90
33476;DHT22;19814;48.224;11.422;2024-02-23T07:49:48;5.50;99.90
33476;DHT22;19814;48.224;11.422;2024-02-23T07:52:14;5.50;99.90
33476;DHT22;19814;48.224;11.422;2024-02-23T07:54:39;5.60;99.90
33476;DHT22;19814;48.224;11.422;2024-02-23T07:57:04;5.50;99.90
33476;DHT22;19814;48.224;11.422;2024-02-23T07:59:30;5.60;99.90
33476;DHT22;19814;48.224;11.422;2024-02-23T08:01:55;5.60;99.90
33476;DHT22;19814;48.224;11.422;2024-02-23T08:04:21;5.60;99.90
33476;DHT22;19814;48.224;11.422;2024-02-23T08:06:47;5.60;99.90
33476;DHT22;19814;48.224;11.422;2024-02-23T08:09:13;5.70;99.90
33476;DHT22;19814;48.224;11.422;2024-02-23T08:11:41;5.80;99.90
33476;DHT22;19814;48.224;11.422;2024-02-23T08:14:07;5.80;99.90
33476;DHT22;19814;48.224;11.422;2024-02-23T08:16:33;5.70;99.90
33476;DHT22;19814;48.224;11.422;2024-02-23T08:18:59;5.80;99.90
33476;DHT22;19814;48.224;11.422;2024-02-23T08:21:24;5.90;99.90
33476;DHT22;19814;48.224;11.422;2024-02-23T08:23:50;5.90;99.90
33476;DHT22;19814;48.224;11.422;2024-02-23T08:26:15;6.00;99.90
33476;DHT22;19814;48.224;11.422;2024-02-23T08:28:41;6.10;99.90
33476;DHT22;19814;48.224;11.422;2024-02-23T08:31:06;6.00;99.90
33476;DHT22;19814;48.224;11.422;2024-02-23T08:33:32;6.10;99.90
33476;DHT22;19814;48.224;11.422;2024-02-23T08:35:57;6.10;99.90
33476;DHT22;19814;48.224;11.422;2024-02-23T08:38:23;6.10;99.90
33476;DHT22;19814;48.224;11.422;2024-02-23T08:40:48;6.30;99.90
33476;DHT22;19814;48.224;11.422;2024-02-23T08:43:14;6.20;99.90
33476;DHT22;19814;48.224;11.422;2024-02-23T08:45:40;6.30;99.90
33476;DHT22;19814;48.224;11.422;2024-02-23T08:48:05;6.50;99.90
33476;DHT22;19814;48.224;11.422;2024-02-23T08:50:32;6.60;99.90
33476;DHT22;19814;48.224;11.422;2024-02-23T08:52:57;6.60;99.90
33476;DHT22;19814;48.224;11.422;2024-02-23T08:55:23;6.70;99.90
33476;DHT22;19814;48.224;11.422;2024-02-23T08:57:48;6.80;99.90
33476;DHT22;19814;48.224;11.422;2024-02-23T09:00:14;7.00;99.90
33476;DHT22;19814;48.224;11.422;2024-02-23T09:02:40;7.10;99.90
33476;DHT22;19814;48.224;11.422;2024-02-23T09:05:07;7.10;99.90
33476;DHT22;19814;48.224;11.422;2024-02-23T09:07:33;7.10;99.90
33476;DHT22;19814;48.224;11.422;2024-02-23T09:09:58;7.20;99.90
33476;DHT22;19814;48.224;11.422;2024-02-23T09:12:24;7.20;99.90
33476;DHT22;19814;48.224;11.422;2024-02-23T09:14:49;7.10;99.90
33476;DHT22;19814;48.224;11.422;2024-02-23T09:17:15;7.20;99.90
33476;DHT22;19814;48.224;11.422;2024-02-23T09:19:40;7.10;99.90
33476;DHT22;19814;48.224;11.422;2024-02-23T09:22:06;7.10;99.90
33476;DHT22;19814;48.224;11.422;2024-02-23T09:24:31;7.10;99.90
33476;DHT22;19814;48.224;11.422;2024-02-23T09:26:57;7.00;99.90
33476;DHT22;19814;48.224;11.422;2024-02-23T09:29:22;7.00;99.90
33476;DHT22;19814;48.224;11.422;2024-02-23T09:31:48;7.10;99.90
33476;DHT22;19814;48.224;11.422;2024-02-23T09:34:13;7.10;99.90
33476;DHT22;19814;48.224;11.422;2024-02-23T09:36:39;7.00;99.90
33476;DHT22;19814;48.224;11.422;2024-02-23T09:39:04;7.00;99.90
33476;DHT22;19814;48.224;11.422;2024-02-23T09:41:30;7.00;99.90
33476;DHT22;19814;48.224;11.422;2024-02-23T09:43:57;7.10;99.90
33476;DHT22;19814;48.224;11.422;2024-02-23T09:46:23;7.00;99.90
33476;DHT22;19814;48.224;11.422;2024-02-23T09:48:49;7.00;99.90
33476;DHT22;19814;48.224;11.422;2024-02-23T09:51:15;7.00;99.90
33476;DHT22;19814;48.224;11.422;2024-02-23T09:53:41;7.00;99.90
33476;DHT22;19814;48.224;11.422;2024-02-23T09:56:08;7.10;99.90
33476;DHT22;19814;48.224;11.422;2024-02-23T09:58:34;7.00;99.90
33476;DHT22;19814;48.224;11.422;2024-02-23T10:01:01;7.10;99.90
33476;DHT22;19814;48.224;11.422;2024-02-23T10:03:27;7.10;99.90
33476;DHT22;19814;48.224;11.422;2024-02-23T10:05:54;7.10;99.90
33476;DHT22;19814;48.224;11.422;2024-02-23T10:08:19;7.10;99.90
33476;DHT22;19814;48.224;11.422;2024-02-23T10:10:47;7.10;99.90
33476;DHT22;19814;48.224;11.422;2024-02-23T10:13:33;7.00;99.90
33476;DHT22;19814;48.224;11.422;2024-02-23T10:15:58;7.10;99.90
33476;DHT22;19814;48.224;11.422;2024-02-23T10:18:24;7.20;99.90
33476;DHT22;19814;48.224;11.422;2024-02-23T10:20:49;7.30;99.90
33476;DHT22;19814;48.224;11.422;2024-02-23T10:23:17;7.10;99.90
33476;DHT22;19814;48.224;11.422;2024-02-23T10:25:45;7.00;99.90
33476;DHT22;19814;48.224;11.422;2024-02-23T10:28:10;7.10;99.90
33476;DHT22;19814;48.224;11.422;2024-02-23T10:30:36;7.20;99.90
33476;DHT22;19814;48.224;11.422;2024-02-23T10:33:02;7.30;99.90
33476;DHT22;19814;48.224;11.422;2024-02-23T10:35:28;7.40;99.90
33476;DHT22;19814;48.224;11.422;2024-02-23T10:37:55;7.40;99.90
33476;DHT22;19814;48.224;11.422;2024-02-23T10:40:21;7.60;99.60
33476;DHT22;19814;48.224;11.422;2024-02-23T10:42:48;7.70;99.40
33476;DHT22;19814;48.224;11.422;2024-02-23T10:45:17;7.80;98.80
33476;DHT22;19814;48.224;11.422;2024-02-23T10:47:42;7.80;98.90
33476;DHT22;19814;48.224;11.422;2024-02-23T10:50:08;7.90;98.30
33476;DHT22;19814;48.224;11.422;2024-02-23T10:52:34;7.90;98.20
33476;DHT22;19814;48.224;11.422;2024-02-23T10:55:00;7.90;97.70
33476;DHT22;19814;48.224;11.422;2024-02-23T10:57:26;7.70;97.20
33476;DHT22;19814;48.224;11.422;2024-02-23T10:59:52;7.50;97.30
33476;DHT22;19814;48.224;11.422;2024-02-23T11:02:18;7.20;97.20
33476;DHT22;19814;48.224;11.422;2024-02-23T11:04:45;7.10;97.90
33476;DHT22;19814;48.224;11.422;2024-02-23T11:07:15;7.10;99.00
33476;DHT22;19814;48.224;11.422;2024-02-23T11:09:41;7.30;99.10
33476;DHT22;19814;48.224;11.422;2024-02-23T11:12:07;7.30;98.70
33476;DHT22;19814;48.224;11.422;2024-02-23T11:14:35;7.40;98.60
33476;DHT22;19814;48.224;11.422;2024-02-23T11:17:01;7.50;99.10
33476;DHT22;19814;48.224;11.422;2024-02-23T11:19:37;7.70;98.20
33476;DHT22;19814;48.224;11.422;2024-02-23T11:22:02;7.70;98.20
33476;DHT22;19814;48.224;11.422;2024-02-23T11:24:29;7.70;97.70
33476;DHT22;19814;48.224;11.422;2024-02-23T11:26:57;7.60;97.40
33476;DHT22;19814;48.224;11.422;2024-02-23T11:29:25;7.40;97.60
33476;DHT22;19814;48.224;11.422;2024-02-23T11:31:51;7.20;97.20
33476;DHT22;19814;48.224;11.422;2024-02-23T11:34:21;7.20;97.30
33476;DHT22;19814;48.224;11.422;2024-02-23T11:36:47;7.10;97.10
33476;DHT22;19814;48.224;11.422;2024-02-23T11:39:15;7.30;97.60
33476;DHT22;19814;48.224;11.422;2024-02-23T11:41:41;7.20;96.80
33476;DHT22;19814;48.224;11.422;2024-02-23T11:44:08;7.10;97.00
33476;DHT22;19814;48.224;11.422;2024-02-23T11:46:34;7.00;97.70
33476;DHT22;19814;48.224;11.422;2024-02-23T11:48:59;7.00;98.10
33476;DHT22;19814;48.224;11.422;2024-02-23T11:51:25;6.90;98.10
33476;DHT22;19814;48.224;11.422;2024-02-23T11:53:53;6.80;98.20
33476;DHT22;19814;48.224;11.422;2024-02-23T11:56:18;6.70;98.70
33476;DHT22;19814;48.224;11.422;2024-02-23T11:58:44;6.60;99.50
33476;DHT22;19814;48.224;11.422;2024-02-23T12:01:09;6.50;99.90
33476;DHT22;19814;48.224;11.422;2024-02-23T12:03:35;6.60;99.90
33476;DHT22;19814;48.224;11.422;2024-02-23T12:06:00;6.60;99.90
33476;DHT22;19814;48.224;11.422;2024-02-23T12:08:27;6.50;99.90
33476;DHT22;19814;48.224;11.422;2024-02-23T12:10:56;6.40;99.90
33476;DHT22;19814;48.224;11.422;2024-02-23T12:13:22;6.20;99.90
33476;DHT22;19814;48.224;11.422;2024-02-23T12:15:47;6.20;99.90
33476;DHT22;19814;48.224;11.422;2024-02-23T12:18:13;6.10;99.90
33476;DHT22;19814;48.224;11.422;2024-02-23T12:20:40;6.00;99.90
33476;DHT22;19814;48.224;11.422;2024-02-23T12:23:05;5.90;99.90
33476;DHT22;19814;48.224;11.422;2024-02-23T12:25:33;5.90;99.90
33476;DHT22;19814;48.224;11.422;2024-02-23T12:27:59;5.90;99.90
33476;DHT22;19814;48.224;11.422;2024-02-23T12:30:25;5.80;99.90
33476;DHT22;19814;48.224;11.422;2024-02-23T12:32:52;5.80;99.90
33476;DHT22;19814;48.224;11.422;2024-02-23T12:35:17;5.70;99.90
33476;DHT22;19814;48.224;11.422;2024-02-23T12:37:43;5.70;99.90
33476;DHT22;19814;48.224;11.422;2024-02-23T12:40:09;5.70;99.90
33476;DHT22;19814;48.224;11.422;2024-02-23T12:42:34;5.90;99.90
33476;DHT22;19814;48.224;11.422;2024-02-23T12:45:00;6.00;99.90
33476;DHT22;19814;48.224;11.422;2024-02-23T12:47:26;6.00;99.90
33476;DHT22;19814;48.224;11.422;2024-02-23T12:49:51;6.10;99.90
33476;DHT22;19814;48.224;11.422;2024-02-23T12:52:16;6.10;99.90
33476;DHT22;19814;48.224;11.422;2024-02-23T12:54:42;6.00;99.60
33476;DHT22;19814;48.224;11.422;2024-02-23T12:57:08;5.90;99.50
33476;DHT22;19814;48.224;11.422;2024-02-23T12:59:33;5.90;99.80
33476;DHT22;19814;48.224;11.422;2024-02-23T13:01:59;5.90;99.00
33476;DHT22;19814;48.224;11.422;2024-02-23T13:04:24;5.80;99.10
33476;DHT22;19814;48.224;11.422;2024-02-23T13:06:50;5.80;99.40
33476;DHT22;19814;48.224;11.422;2024-02-23T13:09:15;5.90;99.50
33476;DHT22;19814;48.224;11.422;2024-02-23T13:11:41;5.90;99.70
33476;DHT22;19814;48.224;11.422;2024-02-23T13:14:07;5.90;99.70
33476;DHT22;19814;48.224;11.422;2024-02-23T13:16:34;6.10;99.60
33476;DHT22;19814;48.224;11.422;2024-02-23T13:19:00;5.90;99.40
33476;DHT22;19814;48.224;11.422;2024-02-23T13:21:25;5.80;99.80
33476;DHT22;19814;48.224;11.422;2024-02-23T13:23:51;5.70;99.80
33476;DHT22;19814;48.224;11.422;2024-02-23T13:26:16;5.70;99.90
33476;DHT22;19814;48.224;11.422;2024-02-23T13:28:42;5.60;99.90
33476;DHT22;19814;48.224;11.422;2024-02-23T13:31:08;5.60;99.90
33476;DHT22;19814;48.224;11.422;2024-02-23T13:33:33;5.70;99.90
33476;DHT22;19814;48.224;11.422;2024-02-23T13:35:59;5.80;99.90
33476;DHT22;19814;48.224;11.422;2024-02-23T13:38:25;5.90;99.80
33476;DHT22;19814;48.224;11.422;2024-02-23T13:40:50;5.80;99.90
33476;DHT22;19814;48.224;11.422;2024-02-23T13:43:16;5.70;99.90
33476;DHT22;19814;48.224;11.422;2024-02-23T13:45:52;5.70;99.90
33476;DHT22;19814;48.224;11.422;2024-02-23T13:48:18;5.70;99.90
33476;DHT22;19814;48.224;11.422;2024-02-23T13:50:44;5.70;99.90
33476;DHT22;19814;48.224;11.422;2024-02-23T13:53:10;5.70;99.90
33476;DHT22;19814;48.224;11.422;2024-02-23T13:55:36;5.70;99.80
33476;DHT22;19814;48.224;11.422;2024-02-23T13:58:02;5.60;99.80
33476;DHT22;19814;48.224;11.422;2024-02-23T14:00:27;5.50;99.70
33476;DHT22;19814;48.224;11.422;2024-02-23T14:02:53;5.40;99.80
33476;DHT22;19814;48.224;11.422;2024-02-23T14:05:18;5.40;99.90
33476;DHT22;19814;48.224;11.422;2024-02-23T14:07:47;5.30;99.70
33476;DHT22;19814;48.224;11.422;2024-02-23T14:10:12;5.30;99.90
33476;DHT22;19814;48.224;11.422;2024-02-23T14:12:38;5.30;99.90
33476;DHT22;19814;48.224;11.422;2024-02-23T14:15:04;5.20;99.90
33476;DHT22;19814;48.224;11.422;2024-02-23T14:17:30;5.30;99.90
33476;DHT22;19814;48.224;11.422;2024-02-23T14:19:56;5.20;99.90
33476;DHT22;19814;48.224;11.422;2024-02-23T14:22:24;5.20;99.90
33476;DHT22;19814;48.224;11.422;2024-02-23T14:24:49;5.20;99.90
33476;DHT22;19814;48.224;11.422;2024-02-23T14:27:15;5.20;99.90
33476;DHT22;19814;48.224;11.422;2024-02-23T14:29:41;5.20;99.90
33476;DHT22;19814;48.224;11.422;2024-02-23T14:32:09;5.20;99.90
33476;DHT22;19814;48.224;11.422;2024-02-23T14:34:34;5.20;99.90
33476;DHT22;19814;48.224;11.422;2024-02-23T14:37:00;5.20;99.90
33476;DHT22;19814;48.224;11.422;2024-02-23T14:39:25;5.20;99.90
33476;DHT22;19814;48.224;11.422;2024-02-23T14:41:51;5.20;99.90
33476;DHT22;19814;48.224;11.422;2024-02-23T14:44:16;5.20;99.90
33476;DHT22;19814;48.224;11.422;2024-02-23T14:46:42;5.30;99.90
33476;DHT22;19814;48.224;11.422;2024-02-23T14:49:07;5.30;99.90
33476;DHT22;19814;48.224;11.422;2024-02-23T14:51:33;5.30;99.90
33476;DHT22;19814;48.224;11.422;2024-02-23T14:54:00;5.20;99.90
33476;DHT22;19814;48.224;11.422;2024-02-23T14:56:27;5.20;99.90
33476;DHT22;19814;48.224;11.422;2024-02-23T14:58:53;5.10;99.90
33476;DHT22;19814;48.224;11.422;2024-02-23T15:01:18;5.10;99.90
33476;DHT22;19814;48.224;11.422;2024-02-23T15:03:44;5.10;99.90
33476;DHT22;19814;48.224;11.422;2024-02-23T15:06:10;5.20;99.90
33476;DHT22;19814;48.224;11.422;2024-02-23T15:08:36;5.20;99.90
33476;DHT22;19814;48.224;11.422;2024-02-23T15:11:02;5.20;99.90
33476;DHT22;19814;48.224;11.422;2024-02-23T15:13:28;5.10;99.90
33476;DHT22;19814;48.224;11.422;2024-02-23T15:15:53;5.10;99.90
33476;DHT22;19814;48.224;11.422;2024-02-23T15:18:19;5.00;99.90
33476;DHT22;19814;48.224;11.422;2024-02-23T15:20:45;5.00;99.90
33476;DHT22;19814;48.224;11.422;2024-02-23T15:23:12;5.00;99.90